createdAt,value
2024-02-24T00:00:03.389Z,2396.878
2024-02-24T00:05:03.252Z,2398.4320000000002
2024-02-24T00:10:03.065Z,2383.838
2024-02-24T00:15:03.034Z,2378.869
2024-02-24T00:20:03.052Z,2408.835
2024-02-24T00:25:03.041Z,1340.271
2024-02-24T00:30:03.032Z,160.264
2024-02-24T00:35:03.160Z,166.68800000000002
2024-02-24T00:40:00.462Z,185.937
2024-02-24T00:45:00.543Z,274.027
2024-02-24T00:50:00.455Z,302.611
2024-02-24T00:55:00.483Z,763.506
2024-02-24T01:00:00.520Z,2365.145
2024-02-24T01:05:00.586Z,2315.213
2024-02-24T01:10:00.699Z,1865.474
2024-02-24T01:15:00.529Z,2377.98
2024-02-24T01:20:00.543Z,2376.806
2024-02-24T01:25:00.589Z,2401.538
2024-02-24T01:30:00.673Z,2487.337
2024-02-24T01:35:00.849Z,2945.253
2024-02-24T01:40:00.568Z,487.372
2024-02-24T01:45:00.553Z,270.709
2024-02-24T01:50:00.595Z,234.72400000000002
2024-02-24T01:55:00.615Z,183.143
2024-02-24T02:00:00.530Z,183.512
2024-02-24T02:05:00.666Z,191.713
2024-02-24T02:10:00.694Z,1987.4840000000002
2024-02-24T02:15:00.628Z,2316.219
2024-02-24T02:20:00.644Z,2321.353
2024-02-24T02:25:00.734Z,2441.892
2024-02-24T02:30:00.683Z,2473.9610000000002
2024-02-24T02:35:00.777Z,1895.983
2024-02-24T02:40:00.763Z,2560.1330000000003
2024-02-24T02:45:00.707Z,2363.282
2024-02-24T02:50:00.730Z,2394.309
2024-02-24T02:55:00.769Z,307.314
2024-02-24T03:00:00.695Z,156.907
2024-02-24T03:05:00.816Z,156.83100000000002
2024-02-24T03:10:00.869Z,156.40800000000002
2024-02-24T03:15:00.787Z,301.753
2024-02-24T03:20:00.710Z,1310.709
2024-02-24T03:25:00.760Z,2440.303
2024-02-24T03:30:00.762Z,2376.88
2024-02-24T03:35:00.848Z,2346.616
2024-02-24T03:40:00.804Z,2355.023
2024-02-24T03:45:00.936Z,2367.908
2024-02-24T03:50:00.612Z,2381.266
2024-02-24T03:55:00.831Z,2177.492
2024-02-24T04:00:00.699Z,2211.209
2024-02-24T04:05:00.739Z,2655.279
2024-02-24T04:10:00.672Z,2835.468
2024-02-24T04:15:00.657Z,1434.0040000000001
2024-02-24T04:20:00.706Z,230.80100000000002
2024-02-24T04:25:00.666Z,183.537
2024-02-24T04:30:00.708Z,182.70000000000002
2024-02-24T04:35:00.677Z,1249.092
2024-02-24T04:40:00.756Z,2325.283
2024-02-24T04:45:00.654Z,2330.96
2024-02-24T04:50:00.690Z,2341.602
2024-02-24T04:55:00.738Z,2475.862
2024-02-24T05:00:00.721Z,2480.4990000000003
2024-02-24T05:05:00.896Z,2492.866
2024-02-24T05:10:00.681Z,2189.698
2024-02-24T05:15:00.746Z,2160.09
2024-02-24T05:20:00.730Z,2499.666
2024-02-24T05:25:00.750Z,2419.87
2024-02-24T05:30:00.709Z,1995.193
2024-02-24T05:35:00.774Z,176.84
2024-02-24T05:40:00.728Z,209.721
2024-02-24T05:45:00.814Z,310.216
2024-02-24T05:50:00.686Z,336.027
2024-02-24T05:55:00.764Z,1021.041
2024-02-24T06:00:00.700Z,2357.824
2024-02-24T06:05:00.852Z,2350.446
2024-02-24T06:10:00.810Z,2362.158
2024-02-24T06:15:00.798Z,2369.616
2024-02-24T06:20:00.793Z,2368.416
2024-02-24T06:25:00.768Z,2375.9030000000002
2024-02-24T06:30:00.872Z,1763.736
2024-02-24T06:35:00.800Z,2774.426
2024-02-24T06:40:00.799Z,2522.588
2024-02-24T06:45:00.918Z,2518.8940000000002
2024-02-24T06:50:00.881Z,2439.871
2024-02-24T06:55:00.972Z,2445.04
2024-02-24T07:00:00.825Z,2647.533
2024-02-24T07:05:00.833Z,1697.307
2024-02-24T07:10:00.816Z,181.214
2024-02-24T07:15:00.835Z,180.394
2024-02-24T07:20:00.776Z,267.277
2024-02-24T07:25:00.791Z,306.375
2024-02-24T07:30:00.883Z,305.188
2024-02-24T07:35:00.836Z,2383.092
2024-02-24T07:40:00.904Z,2335.2780000000002
2024-02-24T07:45:00.871Z,2350.341
2024-02-24T07:50:00.867Z,2133.5950000000003
2024-02-24T07:55:00.857Z,1892.454
2024-02-24T08:00:00.917Z,2432.391
2024-02-24T08:05:00.904Z,1919.771
2024-02-24T08:10:00.865Z,947.134
2024-02-24T08:15:00.986Z,1547.752
2024-02-24T08:20:00.991Z,282.187
2024-02-24T08:25:00.894Z,246.083
2024-02-24T08:30:00.938Z,159.425
2024-02-24T08:35:00.936Z,159.594
2024-02-24T08:40:00.906Z,160.552
2024-02-24T08:45:00.995Z,582.912
2024-02-24T08:50:00.978Z,2329.745
2024-02-24T08:55:01.116Z,2358.2780000000002
2024-02-24T09:00:01.046Z,2462.929
2024-02-24T09:05:01.190Z,2611.507
2024-02-24T09:10:03.695Z,3028.181
2024-02-24T09:15:01.172Z,585.793
2024-02-24T09:20:01.123Z,204.735
2024-02-24T09:25:01.141Z,203.13
2024-02-24T09:30:01.091Z,199.672
2024-02-24T09:35:01.173Z,199.81900000000002
2024-02-24T09:40:02.658Z,198.189
2024-02-24T09:45:01.144Z,192.729
2024-02-24T09:50:01.156Z,246.746
2024-02-24T09:55:00.941Z,294.76800000000003
2024-02-24T10:00:00.996Z,285.058
2024-02-24T10:05:01.151Z,1594.681
2024-02-24T10:10:00.998Z,2350.896
2024-02-24T10:15:01.005Z,2119.62
2024-02-24T10:20:01.020Z,2414.963
2024-02-24T10:25:00.981Z,840.748
2024-02-24T10:30:01.087Z,173.904
2024-02-24T10:35:01.025Z,193.193
2024-02-24T10:40:00.984Z,268.507
2024-02-24T10:45:01.026Z,325.753
2024-02-24T10:50:01.080Z,316.76800000000003
2024-02-24T10:55:01.009Z,286.67900000000003
2024-02-24T11:00:01.002Z,210.156
2024-02-24T11:05:01.171Z,211.19
2024-02-24T11:10:01.095Z,193.234
2024-02-24T11:15:01.028Z,176.621
2024-02-24T11:20:00.991Z,176.761
2024-02-24T11:25:01.039Z,2029.3890000000001
2024-02-24T11:30:01.149Z,2452.099
2024-02-24T11:35:01.138Z,2537.513
2024-02-24T11:40:01.070Z,2851.1150000000002
2024-02-24T11:45:01.214Z,1566.483
2024-02-24T11:50:01.664Z,189.611
2024-02-24T11:55:01.197Z,176.042
2024-02-24T12:00:01.286Z,177.26500000000001
2024-02-24T12:05:01.286Z,177.748
2024-02-24T12:10:01.113Z,176.806
2024-02-24T12:15:01.069Z,176.006
2024-02-24T12:20:01.093Z,268.09000000000003
2024-02-24T12:25:01.038Z,294.73900000000003
2024-02-24T12:30:01.153Z,286.218
2024-02-24T12:35:01.115Z,242.576
2024-02-24T12:40:01.096Z,214.582
2024-02-24T12:45:01.211Z,217.217
2024-02-24T12:50:01.159Z,808.297
2024-02-24T12:55:01.167Z,2315.501
2024-02-24T13:00:01.222Z,2375.632
2024-02-24T13:05:01.379Z,2056.664
2024-02-24T13:15:01.519Z,316.098
2024-02-24T13:20:01.389Z,291.176
2024-02-24T13:25:01.171Z,207.909
2024-02-24T13:30:01.341Z,177.91
2024-02-24T13:35:01.289Z,171.399
2024-02-24T13:40:01.350Z,166.663
2024-02-24T13:45:01.383Z,170.407
2024-02-24T13:50:01.339Z,172.351
2024-02-24T13:55:01.300Z,174.737
2024-02-24T14:00:01.229Z,310.729
2024-02-24T14:05:01.169Z,315.54200000000003
2024-02-24T14:10:01.252Z,2238.221
2024-02-24T14:15:01.243Z,2181.553
2024-02-24T14:20:05.468Z,2381.702
2024-02-24T14:25:01.206Z,2539.608
2024-02-24T14:30:01.262Z,2406.581
2024-02-24T14:35:01.223Z,187.857
2024-02-24T14:40:01.177Z,186.785
2024-02-24T14:45:01.305Z,191.213
2024-02-24T14:50:01.170Z,288.865
2024-02-24T14:55:01.224Z,277.134
2024-02-24T15:00:06.133Z,271.178
2024-02-24T15:05:01.207Z,183.50900000000001
2024-02-24T15:10:01.276Z,159.33100000000002
2024-02-24T15:15:01.269Z,160.082
2024-02-24T15:20:03.386Z,160.13
2024-02-24T15:25:01.260Z,1778.087
2024-02-24T15:30:01.356Z,2339.151
2024-02-24T15:35:01.374Z,2376.797
2024-02-24T15:40:01.285Z,2020.843
2024-02-24T15:45:01.361Z,299.25100000000003
2024-02-24T15:50:01.352Z,303.246
2024-02-24T15:55:01.287Z,206.853
2024-02-24T16:00:01.390Z,197.058
2024-02-24T16:05:01.307Z,165.751
2024-02-24T16:10:01.347Z,162.703
2024-02-24T16:15:01.386Z,162.564
2024-02-24T16:20:01.412Z,184.346
2024-02-24T16:25:01.437Z,578.492
2024-02-24T16:30:01.470Z,2445.263
2024-02-24T16:35:01.630Z,2454.311
2024-02-24T16:40:01.372Z,2467.406
2024-02-24T16:45:01.457Z,2079.5190000000002
2024-02-24T16:50:01.526Z,2819.203
2024-02-24T16:55:01.490Z,573.573
2024-02-24T17:00:01.514Z,160.899
2024-02-24T17:05:01.471Z,160.611
2024-02-24T17:10:01.545Z,160.218
2024-02-24T17:15:01.599Z,189.941
2024-02-24T17:20:01.507Z,281.826
2024-02-24T17:25:01.444Z,1980.529
2024-02-24T17:30:01.555Z,2446.723
2024-02-24T17:35:01.502Z,2400.599
2024-02-24T17:40:01.477Z,1815.286
2024-02-24T17:45:01.484Z,195.711
2024-02-24T17:50:01.433Z,187.614
2024-02-24T17:55:01.497Z,186.471
2024-02-24T18:00:01.584Z,186.08100000000002
2024-02-24T18:05:01.583Z,184.532
2024-02-24T18:10:01.577Z,294.974
2024-02-24T18:15:01.565Z,277.36
2024-02-24T18:20:01.534Z,272.786
2024-02-24T18:25:01.500Z,1936.428
2024-02-24T18:30:04.083Z,2329.623
2024-02-24T18:35:01.536Z,2360.071
2024-02-24T18:40:01.518Z,2401.457
2024-02-24T18:45:01.661Z,2878.1040000000003
2024-02-24T18:50:01.550Z,469.454
2024-02-24T18:55:01.518Z,170.625
2024-02-24T19:00:01.655Z,299.133
2024-02-24T19:05:01.690Z,304.345
2024-02-24T19:10:01.583Z,299.26300000000003
2024-02-24T19:15:01.645Z,252.142
2024-02-24T19:20:01.584Z,197.068
2024-02-24T19:25:01.589Z,197.781
2024-02-24T19:30:01.708Z,1130.717
2024-02-24T19:35:01.622Z,2131.9230000000002
2024-02-24T19:40:01.597Z,2341.951
2024-02-24T19:45:01.754Z,2369.727
2024-02-24T19:50:01.587Z,2474.806
2024-02-24T19:55:01.621Z,499.796
2024-02-24T20:00:01.706Z,300.63800000000003
2024-02-24T20:05:01.750Z,271.827
2024-02-24T20:10:01.667Z,171.166
2024-02-24T20:15:01.675Z,162.928
2024-02-24T20:20:01.676Z,162.662
2024-02-24T20:25:01.652Z,162.427
2024-02-24T20:30:01.703Z,709.437
2024-02-24T20:35:01.633Z,2320.4610000000002
2024-02-24T20:40:01.606Z,2400.146
2024-02-24T20:45:01.669Z,2476.26
2024-02-24T20:50:01.739Z,2510.294
2024-02-24T20:55:01.670Z,2866.446
2024-02-24T21:00:01.746Z,895.5500000000001
2024-02-24T21:05:01.708Z,195.691
2024-02-24T21:10:01.727Z,198.746
2024-02-24T21:15:01.684Z,198.732
2024-02-24T21:20:01.725Z,190.798
2024-02-24T21:25:01.666Z,188.05700000000002
2024-02-24T21:30:01.710Z,245.02100000000002
2024-02-24T21:35:01.716Z,306.857
2024-02-24T21:40:01.668Z,286.834
2024-02-24T21:45:01.718Z,1704.334
2024-02-24T21:50:01.730Z,2048.32
2024-02-24T21:55:01.756Z,2350.8540000000003
2024-02-24T22:00:01.933Z,2365.44
2024-02-24T22:05:01.710Z,2396.668
2024-02-24T22:10:01.773Z,681.841
2024-02-24T22:15:01.919Z,159.41
2024-02-24T22:20:01.699Z,231.648
2024-02-24T22:25:01.770Z,303.986
2024-02-24T22:30:05.033Z,299.685
2024-02-24T22:35:01.698Z,262.284
2024-02-24T22:40:01.726Z,183.726
2024-02-24T22:45:01.796Z,433.95300000000003
2024-02-24T22:50:01.829Z,2328.149
2024-02-24T22:55:01.780Z,2359.101
2024-02-24T23:00:01.801Z,2367.837
2024-02-24T23:05:01.829Z,2371.96
2024-02-24T23:10:01.795Z,2660.318
2024-02-24T23:15:01.839Z,1933.76
2024-02-24T23:20:01.770Z,299.45
2024-02-24T23:25:01.888Z,247.089
2024-02-24T23:30:01.851Z,184.736
2024-02-24T23:35:01.969Z,183.81300000000002
2024-02-24T23:40:01.665Z,190.626
2024-02-24T23:45:01.782Z,159.968
2024-02-24T23:50:01.675Z,2159.26
2024-02-24T23:55:01.624Z,1885.962
